< < Back
Terminal Aerodrome Forecast


Current Version              Previous Versions:   1  2  3  4  5  6  7  8  9  

Terminal Aerodrome Forecast

588
FTUS44 KBMX 070520
TAFMGM
TAF
KMGM 070520Z 0706/0806 08002KT P6SM SKC
     FM071500 07005KT P6SM SKC=

Latest METAR

132
SAUS80 KWBC 070600 CCA
MTRMGM
METAR KMGM 070553Z AUTO 00000KT 10SM CLR 18/14 A3009 RMK AO2 SLP185
T01780144 10272 20172 402940150 55002


USA.gov is the U.S. government's official web portal to all federal, state and local government web resources and services.